Thursday, April 26, 2018, 4:37 PM EDT
Back to Local

KFME, Fort Meade / Tipton

Location: Laurel, MD, United States Lat: 39.083
Local Time: 4:37 PM EDT (20:37 GMT) Lon: -76.767
Time Zone: US/Eastern Elev: 150 ft

Show me the last for .
Show Decoded

2018-04-26 16:15 METAR KFME 262015Z AUTO 31005KT 10SM CLR 20/01 A2986 RMK AO1 =
2018-04-26 15:57 METAR KFME 261957Z AUTO 29005G15KT 10SM CLR 20/01 A2986 RMK AO1 =
2018-04-26 15:36 METAR KFME 261936Z AUTO 26011KT 10SM CLR 20/02 A2986 RMK AO1 =
2018-04-26 15:15 METAR KFME 261915Z AUTO 28009KT 10SM CLR 20/02 A2987 RMK AO1 =
2018-04-26 14:57 METAR KFME 261857Z AUTO 32004KT 10SM CLR 20/02 A2987 RMK AO1 =
2018-04-26 14:36 METAR KFME 261836Z AUTO 24008KT 10SM CLR 20/02 A2987 RMK AO1 =
2018-04-26 14:15 METAR KFME 261815Z AUTO 31007KT 280V000 10SM CLR 19/03 A2987 RMK AO1 =
2018-04-26 13:57 METAR KFME 261757Z AUTO 28008KT 10SM CLR 19/03 A2988 RMK AO1 =
2018-04-26 13:36 METAR KFME 261736Z AUTO 30011G15KT 10SM CLR 18/03 A2988 RMK AO1 =
2018-04-26 13:15 METAR KFME 261715Z AUTO 31011G14KT 10SM CLR 18/03 A2988 RMK AO1 =
2018-04-26 12:57 METAR KFME 261657Z AUTO 27010G18KT 10SM CLR 18/04 A2988 RMK AO1 =
2018-04-26 12:36 METAR KFME 261636Z AUTO 30008KT 250V310 10SM CLR 17/05 A2988 RMK AO1 =
2018-04-26 12:15 METAR KFME 261615Z AUTO 29010G15KT 260V350 10SM CLR 17/05 A2989 RMK AO1 =
2018-04-26 11:57 METAR KFME 261557Z AUTO 31005G14KT 10SM CLR 17/05 A2989 RMK AO1 =
2018-04-26 11:36 METAR KFME 261536Z AUTO 30006G14KT 10SM CLR 16/05 A2990 RMK AO1 =
2018-04-26 11:15 METAR KFME 261515Z AUTO 28008KT 10SM CLR 15/04 A2990 RMK AO1 =
2018-04-26 10:57 METAR KFME 261457Z AUTO 28007KT 260V320 10SM CLR 16/05 A2990 RMK AO1 =
2018-04-26 10:36 METAR KFME 261436Z AUTO 29010G14KT 10SM CLR 14/03 A2989 RMK AO1 =
2018-04-26 10:15 METAR KFME 261415Z AUTO 30008KT 10SM CLR 14/05 A2989 RMK AO1 =
2018-04-26 09:57 METAR KFME 261357Z AUTO 27009KT 10SM CLR 13/04 A2990 RMK AO1 =
2018-04-26 09:36 METAR KFME 261336Z AUTO 28012G15KT 10SM CLR 13/04 A2989 RMK AO1 =
2018-04-26 09:15 METAR KFME 261315Z AUTO 30008G15KT 10SM CLR 12/04 A2988 RMK AO1 =
2018-04-26 08:57 METAR KFME 261257Z AUTO 28011G16KT 10SM CLR 12/04 A2988 RMK AO1 =
2018-04-26 08:36 METAR KFME 261236Z AUTO 30013G18KT 10SM CLR 11/04 A2988 RMK AO1 =
2018-04-26 08:15 METAR KFME 261215Z AUTO 28009G16KT 10SM CLR 11/03 A2988 RMK AO1 =
2018-04-26 07:57 METAR KFME 261157Z AUTO 30011G17KT 10SM CLR 10/03 A2986 RMK AO1 =
2018-04-26 07:36 METAR KFME 261136Z AUTO 30009KT 10SM CLR 10/03 A2985 RMK AO1 =
2018-04-26 07:15 METAR KFME 261115Z AUTO 31010G16KT 10SM CLR 09/03 A2984 RMK AO1 =
2018-04-26 06:57 METAR KFME 261057Z AUTO 30009G17KT 10SM CLR 08/03 A2983 RMK AO1 =
2018-04-26 06:36 METAR KFME 261036Z AUTO 29008G14KT 10SM CLR 07/03 A2983 RMK AO1 =
2018-04-26 06:15 METAR KFME 261015Z AUTO 29007KT 10SM CLR 06/03 A2982 RMK AO1 =
2018-04-26 05:57 METAR KFME 260957Z AUTO 29006KT 10SM CLR 07/03 A2982 RMK AO1 =
2018-04-26 05:36 METAR KFME 260936Z AUTO 28004KT 10SM CLR 07/03 A2983 RMK AO1 =
2018-04-26 05:15 METAR KFME 260915Z AUTO 27005KT 10SM CLR 07/04 A2983 RMK AO1 =
2018-04-26 04:57 METAR KFME 260857Z AUTO 27006KT 10SM CLR 07/04 A2983 RMK AO1 =
2018-04-26 04:36 METAR KFME 260836Z AUTO 27008KT 10SM CLR 08/04 A2983 RMK AO1 =
2018-04-26 04:15 METAR KFME 260815Z AUTO 27007G14KT 10SM CLR 08/04 A2983 RMK AO1 =
2018-04-26 03:57 METAR KFME 260757Z AUTO 29008G15KT 10SM CLR 09/05 A2981 RMK AO1 =
2018-04-26 03:51 METAR KFME 260751Z AUTO 29010G19KT 10SM CLR 09/05 A2981 RMK AO1 =
2018-04-26 03:36 METAR KFME 260736Z AUTO 29010G18KT 10SM CLR 10/05 A2979 RMK AO1 =
2018-04-26 02:36 METAR KFME 260636Z AUTO 29009KT 10SM CLR 12/09 A2976 RMK AO1 =
2018-04-26 02:15 METAR KFME 260615Z AUTO 29007KT 10SM CLR 12/10 A2976 RMK AO1 =
2018-04-26 01:57 METAR KFME 260557Z AUTO 29005KT 10SM CLR 12/10 A2976 RMK AO1 =
2018-04-26 01:36 METAR KFME 260536Z AUTO 29007KT 10SM CLR 13/10 A2976 RMK AO1 =
2018-04-26 01:15 METAR KFME 260515Z AUTO 31009G14KT 280V340 10SM CLR 12/10 A2976 RMK AO1 =
2018-04-26 00:57 METAR KFME 260457Z AUTO 30011G20KT 10SM CLR 12/11 A2975 RMK AO1 =
2018-04-26 00:36 METAR KFME 260436Z AUTO 29005KT 7SM CLR 12/11 A2975 RMK AO1 =
2018-04-26 00:15 METAR KFME 260415Z AUTO 28004KT 10SM CLR 12/11 A2975 RMK AO1 =
2018-04-25 23:57 METAR KFME 260357Z AUTO 29003KT 7SM CLR 12/11 A2975 RMK AO1 =
2018-04-25 23:36 METAR KFME 260336Z AUTO 00000KT 1 1/2SM VV007 11/11 A2975 RMK AO1 =
2018-04-25 23:15 METAR KFME 260315Z AUTO 00000KT 5SM SCT043 SCT050 12/11 A2975 RMK AO1 =
2018-04-25 22:57 METAR KFME 260257Z AUTO 00000KT 5SM SCT043 SCT055 12/12 A2975 RMK AO1 =
2018-04-25 22:36 METAR KFME 260236Z AUTO 00000KT 10SM SCT110 13/12 A2975 RMK AO1 =
2018-04-25 22:15 METAR KFME 260215Z AUTO 00000KT 10SM BKN100 14/13 A2975 RMK AO1 =
2018-04-25 21:57 METAR KFME 260157Z AUTO 00000KT 10SM BKN080 OVC100 14/13 A2975 RMK AO1 =
2018-04-25 21:36 METAR KFME 260136Z AUTO 00000KT 10SM OVC070 15/13 A2975 RMK AO1 =
2018-04-25 21:15 METAR KFME 260115Z AUTO 30003KT 10SM OVC070 15/13 A2975 RMK AO1 =
2018-04-25 20:57 METAR KFME 260057Z AUTO 29003KT 10SM SCT050 BKN060 OVC095 15/13 A2975 RMK AO1 =
2018-04-25 20:36 METAR KFME 260036Z AUTO 00000KT 10SM SCT039 BKN050 OVC070 15/13 A2974 RMK AO1 =
2018-04-25 20:15 METAR KFME 260015Z AUTO 31004KT 10SM SCT037 OVC046 16/13 A2973 RMK AO1 =
2018-04-25 19:57 METAR KFME 252357Z AUTO 31005KT 10SM SCT039 OVC045 16/13 A2972 RMK AO1 =
2018-04-25 19:36 METAR KFME 252336Z AUTO 31003KT 10SM SCT025 BKN037 OVC045 16/13 A2971 RMK AO1 =
2018-04-25 19:15 METAR KFME 252315Z AUTO 31006KT 10SM OVC023 17/13 A2971 RMK AO1 =
2018-04-25 18:57 METAR KFME 252257Z AUTO 32007KT 10SM OVC023 17/13 A2970 RMK AO1 =
2018-04-25 18:36 METAR KFME 252236Z AUTO 31005KT 10SM OVC021 17/13 A2970 RMK AO1 =
2018-04-25 18:15 METAR KFME 252215Z AUTO 29008KT 10SM BKN023 OVC029 17/14 A2970 RMK AO1 =
2018-04-25 17:57 METAR KFME 252157Z AUTO 31004KT 10SM BKN023 OVC030 17/14 A2970 RMK AO1 =
2018-04-25 17:36 METAR KFME 252136Z AUTO 31005KT 10SM OVC019 17/14 A2970 RMK AO1 =
2018-04-25 17:15 METAR KFME 252115Z AUTO 31006KT 290V000 10SM BKN020 OVC025 18/15 A2970 RMK AO1 =
2018-04-25 16:57 METAR KFME 252057Z AUTO 34004KT 10SM OVC022 18/14 A2970 RMK AO1 =

Support USWX by starting your Amazon purchase here.